sensor_id;sensor_type;location;lat;lon;timestamp;temperature;humidity
27164;DHT22;14685;50.618;7.024;2023-08-06T00:01:53;19.00;99.90
27164;DHT22;14685;50.618;7.024;2023-08-06T00:04:21;19.10;99.90
27164;DHT22;14685;50.618;7.024;2023-08-06T00:06:48;19.10;99.90
27164;DHT22;14685;50.618;7.024;2023-08-06T00:09:14;19.10;99.90
27164;DHT22;14685;50.618;7.024;2023-08-06T00:11:42;19.00;99.90
27164;DHT22;14685;50.618;7.024;2023-08-06T00:14:10;19.00;99.90
27164;DHT22;14685;50.618;7.024;2023-08-06T00:16:37;19.00;99.90
27164;DHT22;14685;50.618;7.024;2023-08-06T00:19:04;19.00;99.90
27164;DHT22;14685;50.618;7.024;2023-08-06T00:21:32;19.00;99.90
27164;DHT22;14685;50.618;7.024;2023-08-06T00:23:59;19.00;99.90
27164;DHT22;14685;50.618;7.024;2023-08-06T00:26:26;19.00;99.90
27164;DHT22;14685;50.618;7.024;2023-08-06T00:28:53;19.00;99.90
27164;DHT22;14685;50.618;7.024;2023-08-06T00:31:20;18.90;99.90
27164;DHT22;14685;50.618;7.024;2023-08-06T00:33:47;19.00;99.90
27164;DHT22;14685;50.618;7.024;2023-08-06T00:36:14;19.00;99.90
27164;DHT22;14685;50.618;7.024;2023-08-06T00:38:41;18.90;99.90
27164;DHT22;14685;50.618;7.024;2023-08-06T00:41:08;19.10;99.90
27164;DHT22;14685;50.618;7.024;2023-08-06T00:43:35;19.10;99.90
27164;DHT22;14685;50.618;7.024;2023-08-06T00:46:02;19.10;99.90
27164;DHT22;14685;50.618;7.024;2023-08-06T00:48:29;19.10;99.90
27164;DHT22;14685;50.618;7.024;2023-08-06T00:50:56;19.20;99.90
27164;DHT22;14685;50.618;7.024;2023-08-06T00:53:23;19.10;99.90
27164;DHT22;14685;50.618;7.024;2023-08-06T00:55:51;19.10;99.90
27164;DHT22;14685;50.618;7.024;2023-08-06T00:58:18;19.00;99.90
27164;DHT22;14685;50.618;7.024;2023-08-06T01:00:46;19.00;99.90
27164;DHT22;14685;50.618;7.024;2023-08-06T01:03:14;19.00;99.90
27164;DHT22;14685;50.618;7.024;2023-08-06T01:05:41;18.90;99.90
27164;DHT22;14685;50.618;7.024;2023-08-06T01:11:22;18.90;99.90
27164;DHT22;14685;50.618;7.024;2023-08-06T01:14:15;18.90;99.90
27164;DHT22;14685;50.618;7.024;2023-08-06T01:16:45;19.00;99.90
27164;DHT22;14685;50.618;7.024;2023-08-06T01:19:19;18.90;99.90
27164;DHT22;14685;50.618;7.024;2023-08-06T01:21:46;18.90;99.90
27164;DHT22;14685;50.618;7.024;2023-08-06T01:24:13;18.90;99.90
27164;DHT22;14685;50.618;7.024;2023-08-06T01:26:50;18.90;99.90
27164;DHT22;14685;50.618;7.024;2023-08-06T01:29:35;18.90;99.90
27164;DHT22;14685;50.618;7.024;2023-08-06T01:32:08;18.90;99.90
27164;DHT22;14685;50.618;7.024;2023-08-06T01:34:39;18.80;99.90
27164;DHT22;14685;50.618;7.024;2023-08-06T01:37:06;18.90;99.90
27164;DHT22;14685;50.618;7.024;2023-08-06T01:39:33;18.90;99.90
27164;DHT22;14685;50.618;7.024;2023-08-06T01:42:00;18.90;99.90
27164;DHT22;14685;50.618;7.024;2023-08-06T01:44:28;18.70;99.90
27164;DHT22;14685;50.618;7.024;2023-08-06T01:46:55;18.50;99.90
27164;DHT22;14685;50.618;7.024;2023-08-06T01:49:22;18.60;99.90
27164;DHT22;14685;50.618;7.024;2023-08-06T01:51:48;18.60;99.90
27164;DHT22;14685;50.618;7.024;2023-08-06T01:54:16;18.60;99.90
27164;DHT22;14685;50.618;7.024;2023-08-06T01:56:44;18.60;99.90
27164;DHT22;14685;50.618;7.024;2023-08-06T01:59:11;18.60;99.90
27164;DHT22;14685;50.618;7.024;2023-08-06T02:01:38;18.80;99.90
27164;DHT22;14685;50.618;7.024;2023-08-06T02:04:05;18.60;99.90
27164;DHT22;14685;50.618;7.024;2023-08-06T02:06:32;18.60;99.90
27164;DHT22;14685;50.618;7.024;2023-08-06T02:08:59;18.50;99.90
27164;DHT22;14685;50.618;7.024;2023-08-06T02:11:26;18.60;99.90
27164;DHT22;14685;50.618;7.024;2023-08-06T02:13:53;18.50;99.90
27164;DHT22;14685;50.618;7.024;2023-08-06T02:16:19;18.50;99.90
27164;DHT22;14685;50.618;7.024;2023-08-06T02:18:46;18.50;99.90
27164;DHT22;14685;50.618;7.024;2023-08-06T02:21:13;18.40;99.90
27164;DHT22;14685;50.618;7.024;2023-08-06T02:23:41;18.40;99.90
27164;DHT22;14685;50.618;7.024;2023-08-06T02:26:08;18.50;99.90
27164;DHT22;14685;50.618;7.024;2023-08-06T02:28:35;18.50;99.90
27164;DHT22;14685;50.618;7.024;2023-08-06T02:31:02;18.50;99.90
27164;DHT22;14685;50.618;7.024;2023-08-06T02:33:29;18.50;99.90
27164;DHT22;14685;50.618;7.024;2023-08-06T02:36:00;18.60;99.90
27164;DHT22;14685;50.618;7.024;2023-08-06T02:38:28;18.50;99.90
27164;DHT22;14685;50.618;7.024;2023-08-06T02:40:54;18.60;99.90
27164;DHT22;14685;50.618;7.024;2023-08-06T02:43:21;18.50;99.90
27164;DHT22;14685;50.618;7.024;2023-08-06T02:45:48;18.60;99.90
27164;DHT22;14685;50.618;7.024;2023-08-06T02:48:16;18.60;99.90
27164;DHT22;14685;50.618;7.024;2023-08-06T02:50:44;18.60;99.90
27164;DHT22;14685;50.618;7.024;2023-08-06T02:53:11;18.50;99.90
27164;DHT22;14685;50.618;7.024;2023-08-06T02:55:45;18.50;99.90
27164;DHT22;14685;50.618;7.024;2023-08-06T02:58:14;18.50;99.90
27164;DHT22;14685;50.618;7.024;2023-08-06T03:00:41;18.50;99.90
27164;DHT22;14685;50.618;7.024;2023-08-06T03:03:10;18.50;99.90
27164;DHT22;14685;50.618;7.024;2023-08-06T03:05:37;18.50;99.90
27164;DHT22;14685;50.618;7.024;2023-08-06T03:08:04;18.50;99.90
27164;DHT22;14685;50.618;7.024;2023-08-06T03:10:30;18.50;99.90
27164;DHT22;14685;50.618;7.024;2023-08-06T03:12:57;18.60;99.90
27164;DHT22;14685;50.618;7.024;2023-08-06T03:15:24;18.50;99.90
27164;DHT22;14685;50.618;7.024;2023-08-06T03:17:51;18.60;99.90
27164;DHT22;14685;50.618;7.024;2023-08-06T03:20:18;18.60;99.90
27164;DHT22;14685;50.618;7.024;2023-08-06T03:22:45;18.50;99.90
27164;DHT22;14685;50.618;7.024;2023-08-06T03:25:12;18.50;99.90
27164;DHT22;14685;50.618;7.024;2023-08-06T03:27:40;18.50;99.90
27164;DHT22;14685;50.618;7.024;2023-08-06T03:30:08;18.40;99.90
27164;DHT22;14685;50.618;7.024;2023-08-06T03:32:36;18.40;99.90
27164;DHT22;14685;50.618;7.024;2023-08-06T03:35:03;18.40;99.90
27164;DHT22;14685;50.618;7.024;2023-08-06T03:37:30;18.40;99.90
27164;DHT22;14685;50.618;7.024;2023-08-06T03:39:57;18.40;99.90
27164;DHT22;14685;50.618;7.024;2023-08-06T03:42:24;18.40;99.90
27164;DHT22;14685;50.618;7.024;2023-08-06T03:44:51;18.40;99.90
27164;DHT22;14685;50.618;7.024;2023-08-06T03:47:18;18.30;99.90
27164;DHT22;14685;50.618;7.024;2023-08-06T03:49:46;18.40;99.90
27164;DHT22;14685;50.618;7.024;2023-08-06T03:52:13;18.30;99.90
27164;DHT22;14685;50.618;7.024;2023-08-06T03:54:40;18.40;99.90
27164;DHT22;14685;50.618;7.024;2023-08-06T03:57:09;18.50;99.90
27164;DHT22;14685;50.618;7.024;2023-08-06T03:59:37;18.40;99.90
27164;DHT22;14685;50.618;7.024;2023-08-06T04:02:04;18.40;99.90
27164;DHT22;14685;50.618;7.024;2023-08-06T04:04:32;18.40;99.90
27164;DHT22;14685;50.618;7.024;2023-08-06T04:06:59;18.30;99.90
27164;DHT22;14685;50.618;7.024;2023-08-06T04:09:28;18.30;99.90
27164;DHT22;14685;50.618;7.024;2023-08-06T04:11:55;18.30;99.90
27164;DHT22;14685;50.618;7.024;2023-08-06T04:14:22;18.20;99.90
27164;DHT22;14685;50.618;7.024;2023-08-06T04:16:49;18.10;99.90
27164;DHT22;14685;50.618;7.024;2023-08-06T04:19:16;18.10;99.90
27164;DHT22;14685;50.618;7.024;2023-08-06T04:21:43;18.10;99.90
27164;DHT22;14685;50.618;7.024;2023-08-06T04:24:12;18.10;99.90
27164;DHT22;14685;50.618;7.024;2023-08-06T04:26:43;18.10;99.90
27164;DHT22;14685;50.618;7.024;2023-08-06T04:29:11;18.00;99.90
27164;DHT22;14685;50.618;7.024;2023-08-06T04:31:37;18.00;99.90
27164;DHT22;14685;50.618;7.024;2023-08-06T04:34:04;18.00;99.90
27164;DHT22;14685;50.618;7.024;2023-08-06T04:36:31;18.10;99.90
27164;DHT22;14685;50.618;7.024;2023-08-06T04:38:59;18.00;99.90
27164;DHT22;14685;50.618;7.024;2023-08-06T04:41:25;18.00;99.90
27164;DHT22;14685;50.618;7.024;2023-08-06T04:43:52;18.00;99.90
27164;DHT22;14685;50.618;7.024;2023-08-06T04:46:20;18.00;99.90
27164;DHT22;14685;50.618;7.024;2023-08-06T04:48:49;18.00;99.90
27164;DHT22;14685;50.618;7.024;2023-08-06T04:51:16;18.00;99.90
27164;DHT22;14685;50.618;7.024;2023-08-06T04:53:43;18.00;99.90
27164;DHT22;14685;50.618;7.024;2023-08-06T04:56:11;18.00;99.90
27164;DHT22;14685;50.618;7.024;2023-08-06T04:58:38;18.00;99.90
27164;DHT22;14685;50.618;7.024;2023-08-06T05:01:06;18.00;99.90
27164;DHT22;14685;50.618;7.024;2023-08-06T05:03:33;18.00;99.90
27164;DHT22;14685;50.618;7.024;2023-08-06T05:06:01;18.00;99.90
27164;DHT22;14685;50.618;7.024;2023-08-06T05:08:28;18.00;99.90
27164;DHT22;14685;50.618;7.024;2023-08-06T05:10:56;18.10;99.90
27164;DHT22;14685;50.618;7.024;2023-08-06T05:13:26;18.10;99.90
27164;DHT22;14685;50.618;7.024;2023-08-06T05:15:54;18.10;99.90
27164;DHT22;14685;50.618;7.024;2023-08-06T05:18:21;18.20;99.90
27164;DHT22;14685;50.618;7.024;2023-08-06T05:20:48;18.10;99.90
27164;DHT22;14685;50.618;7.024;2023-08-06T05:23:15;18.10;99.90
27164;DHT22;14685;50.618;7.024;2023-08-06T05:25:43;18.10;99.90
27164;DHT22;14685;50.618;7.024;2023-08-06T05:28:10;18.00;99.90
27164;DHT22;14685;50.618;7.024;2023-08-06T05:30:41;18.00;99.90
27164;DHT22;14685;50.618;7.024;2023-08-06T05:33:08;17.90;99.90
27164;DHT22;14685;50.618;7.024;2023-08-06T05:35:36;17.90;99.90
27164;DHT22;14685;50.618;7.024;2023-08-06T05:38:03;17.90;99.90
27164;DHT22;14685;50.618;7.024;2023-08-06T05:40:36;17.80;99.90
27164;DHT22;14685;50.618;7.024;2023-08-06T05:43:03;17.90;99.90
27164;DHT22;14685;50.618;7.024;2023-08-06T05:45:30;18.00;99.90
27164;DHT22;14685;50.618;7.024;2023-08-06T05:47:58;18.00;99.90
27164;DHT22;14685;50.618;7.024;2023-08-06T05:50:27;18.10;99.90
27164;DHT22;14685;50.618;7.024;2023-08-06T05:52:54;18.10;99.90
27164;DHT22;14685;50.618;7.024;2023-08-06T05:55:21;18.20;99.90
27164;DHT22;14685;50.618;7.024;2023-08-06T05:57:48;18.20;99.90
27164;DHT22;14685;50.618;7.024;2023-08-06T06:00:19;18.10;99.90
27164;DHT22;14685;50.618;7.024;2023-08-06T06:02:46;18.10;99.90
27164;DHT22;14685;50.618;7.024;2023-08-06T06:05:14;18.10;99.90
27164;DHT22;14685;50.618;7.024;2023-08-06T06:07:43;18.00;99.90
27164;DHT22;14685;50.618;7.024;2023-08-06T06:10:11;18.00;99.90
27164;DHT22;14685;50.618;7.024;2023-08-06T06:12:39;18.00;99.90
27164;DHT22;14685;50.618;7.024;2023-08-06T06:15:09;18.00;99.90
27164;DHT22;14685;50.618;7.024;2023-08-06T06:17:37;18.00;99.90
27164;DHT22;14685;50.618;7.024;2023-08-06T06:20:04;18.10;99.90
27164;DHT22;14685;50.618;7.024;2023-08-06T06:22:32;18.10;99.90
27164;DHT22;14685;50.618;7.024;2023-08-06T06:25:02;18.20;99.90
27164;DHT22;14685;50.618;7.024;2023-08-06T06:27:30;18.20;99.90
27164;DHT22;14685;50.618;7.024;2023-08-06T06:29:59;18.30;99.90
27164;DHT22;14685;50.618;7.024;2023-08-06T06:32:29;18.40;99.90
27164;DHT22;14685;50.618;7.024;2023-08-06T06:34:56;18.40;99.90
27164;DHT22;14685;50.618;7.024;2023-08-06T06:37:23;18.40;99.90
27164;DHT22;14685;50.618;7.024;2023-08-06T06:39:50;18.40;99.90
27164;DHT22;14685;50.618;7.024;2023-08-06T06:42:18;18.50;99.90
27164;DHT22;14685;50.618;7.024;2023-08-06T06:44:45;18.50;99.90
27164;DHT22;14685;50.618;7.024;2023-08-06T06:47:12;18.60;99.90
27164;DHT22;14685;50.618;7.024;2023-08-06T06:49:39;18.60;99.90
27164;DHT22;14685;50.618;7.024;2023-08-06T06:52:08;18.70;99.90
27164;DHT22;14685;50.618;7.024;2023-08-06T06:54:35;18.70;99.90
27164;DHT22;14685;50.618;7.024;2023-08-06T06:57:02;18.70;99.90
27164;DHT22;14685;50.618;7.024;2023-08-06T06:59:30;18.80;99.90
27164;DHT22;14685;50.618;7.024;2023-08-06T07:01:57;18.80;99.90
27164;DHT22;14685;50.618;7.024;2023-08-06T07:04:25;18.80;99.90
27164;DHT22;14685;50.618;7.024;2023-08-06T07:06:52;18.80;99.90
27164;DHT22;14685;50.618;7.024;2023-08-06T07:09:19;18.90;99.90
27164;DHT22;14685;50.618;7.024;2023-08-06T07:11:46;19.00;99.90
27164;DHT22;14685;50.618;7.024;2023-08-06T07:14:15;19.00;99.90
27164;DHT22;14685;50.618;7.024;2023-08-06T07:16:44;19.00;99.90
27164;DHT22;14685;50.618;7.024;2023-08-06T07:19:11;19.10;99.90
27164;DHT22;14685;50.618;7.024;2023-08-06T07:21:39;19.30;99.90
27164;DHT22;14685;50.618;7.024;2023-08-06T07:24:06;19.60;99.90
27164;DHT22;14685;50.618;7.024;2023-08-06T07:26:33;19.80;99.90
27164;DHT22;14685;50.618;7.024;2023-08-06T07:29:00;19.90;99.90
27164;DHT22;14685;50.618;7.024;2023-08-06T07:31:27;20.00;99.90
27164;DHT22;14685;50.618;7.024;2023-08-06T07:33:54;20.10;99.90
27164;DHT22;14685;50.618;7.024;2023-08-06T07:36:21;20.20;99.90
27164;DHT22;14685;50.618;7.024;2023-08-06T07:38:48;20.40;99.90
27164;DHT22;14685;50.618;7.024;2023-08-06T07:41:18;20.40;99.90
27164;DHT22;14685;50.618;7.024;2023-08-06T07:43:45;20.40;99.90
27164;DHT22;14685;50.618;7.024;2023-08-06T07:46:12;20.30;99.90
27164;DHT22;14685;50.618;7.024;2023-08-06T07:48:40;20.30;99.90
27164;DHT22;14685;50.618;7.024;2023-08-06T07:51:07;20.30;99.90
27164;DHT22;14685;50.618;7.024;2023-08-06T07:53:34;20.30;99.90
27164;DHT22;14685;50.618;7.024;2023-08-06T07:56:01;20.40;99.90
27164;DHT22;14685;50.618;7.024;2023-08-06T07:58:29;20.20;99.90
27164;DHT22;14685;50.618;7.024;2023-08-06T08:00:56;20.20;99.90
27164;DHT22;14685;50.618;7.024;2023-08-06T08:03:23;20.10;99.90
27164;DHT22;14685;50.618;7.024;2023-08-06T08:05:54;20.10;99.90
27164;DHT22;14685;50.618;7.024;2023-08-06T08:08:24;20.10;99.90
27164;DHT22;14685;50.618;7.024;2023-08-06T08:10:51;20.10;99.90
27164;DHT22;14685;50.618;7.024;2023-08-06T08:13:18;20.10;99.90
27164;DHT22;14685;50.618;7.024;2023-08-06T08:15:45;20.00;99.90
27164;DHT22;14685;50.618;7.024;2023-08-06T08:18:12;20.10;99.90
27164;DHT22;14685;50.618;7.024;2023-08-06T08:20:39;20.10;99.90
27164;DHT22;14685;50.618;7.024;2023-08-06T08:23:06;20.10;99.90
27164;DHT22;14685;50.618;7.024;2023-08-06T08:25:33;20.10;99.90
27164;DHT22;14685;50.618;7.024;2023-08-06T08:28:00;20.10;99.90
27164;DHT22;14685;50.618;7.024;2023-08-06T08:30:27;20.20;99.90
27164;DHT22;14685;50.618;7.024;2023-08-06T08:32:54;20.20;99.90
27164;DHT22;14685;50.618;7.024;2023-08-06T08:35:21;20.10;99.90
27164;DHT22;14685;50.618;7.024;2023-08-06T08:37:50;20.10;99.90
27164;DHT22;14685;50.618;7.024;2023-08-06T08:40:17;20.10;99.90
27164;DHT22;14685;50.618;7.024;2023-08-06T08:42:44;20.10;99.90
27164;DHT22;14685;50.618;7.024;2023-08-06T08:45:14;20.10;99.90
27164;DHT22;14685;50.618;7.024;2023-08-06T08:47:43;20.10;99.90
27164;DHT22;14685;50.618;7.024;2023-08-06T08:50:10;20.10;99.90
27164;DHT22;14685;50.618;7.024;2023-08-06T08:52:39;20.10;99.90
27164;DHT22;14685;50.618;7.024;2023-08-06T08:55:07;20.10;99.90
27164;DHT22;14685;50.618;7.024;2023-08-06T08:57:36;20.00;99.90
27164;DHT22;14685;50.618;7.024;2023-08-06T09:00:04;20.00;99.90
27164;DHT22;14685;50.618;7.024;2023-08-06T09:02:33;20.00;99.90
27164;DHT22;14685;50.618;7.024;2023-08-06T09:05:01;19.90;99.90
27164;DHT22;14685;50.618;7.024;2023-08-06T09:07:43;19.90;99.90
27164;DHT22;14685;50.618;7.024;2023-08-06T09:10:14;19.90;99.90
27164;DHT22;14685;50.618;7.024;2023-08-06T09:12:45;19.90;99.90
27164;DHT22;14685;50.618;7.024;2023-08-06T09:15:13;19.80;99.90
27164;DHT22;14685;50.618;7.024;2023-08-06T09:17:41;19.80;99.90
27164;DHT22;14685;50.618;7.024;2023-08-06T09:20:12;19.80;99.90
27164;DHT22;14685;50.618;7.024;2023-08-06T09:22:40;19.80;99.90
27164;DHT22;14685;50.618;7.024;2023-08-06T09:25:08;19.80;99.90
27164;DHT22;14685;50.618;7.024;2023-08-06T09:27:40;19.70;99.90
27164;DHT22;14685;50.618;7.024;2023-08-06T09:30:07;19.70;99.90
27164;DHT22;14685;50.618;7.024;2023-08-06T09:32:48;19.60;99.90
27164;DHT22;14685;50.618;7.024;2023-08-06T09:35:18;19.60;99.90
27164;DHT22;14685;50.618;7.024;2023-08-06T09:37:47;19.50;99.90
27164;DHT22;14685;50.618;7.024;2023-08-06T09:40:28;19.50;99.90
27164;DHT22;14685;50.618;7.024;2023-08-06T09:42:56;19.50;99.90
27164;DHT22;14685;50.618;7.024;2023-08-06T09:45:30;19.40;99.90
27164;DHT22;14685;50.618;7.024;2023-08-06T09:47:59;19.40;99.90
27164;DHT22;14685;50.618;7.024;2023-08-06T09:50:29;19.30;99.90
27164;DHT22;14685;50.618;7.024;2023-08-06T09:53:04;19.30;99.90
27164;DHT22;14685;50.618;7.024;2023-08-06T09:55:32;19.20;99.90
27164;DHT22;14685;50.618;7.024;2023-08-06T09:58:00;19.10;99.90
27164;DHT22;14685;50.618;7.024;2023-08-06T10:00:29;19.20;99.90
27164;DHT22;14685;50.618;7.024;2023-08-06T10:03:00;19.20;99.90
27164;DHT22;14685;50.618;7.024;2023-08-06T10:05:27;19.20;99.90
27164;DHT22;14685;50.618;7.024;2023-08-06T10:07:57;19.10;99.90
27164;DHT22;14685;50.618;7.024;2023-08-06T10:10:27;19.10;99.90
27164;DHT22;14685;50.618;7.024;2023-08-06T10:12:55;19.10;99.90
27164;DHT22;14685;50.618;7.024;2023-08-06T10:15:26;19.10;99.90
27164;DHT22;14685;50.618;7.024;2023-08-06T10:17:56;19.10;99.90
27164;DHT22;14685;50.618;7.024;2023-08-06T10:20:24;19.00;99.90
27164;DHT22;14685;50.618;7.024;2023-08-06T10:23:05;18.90;99.90
27164;DHT22;14685;50.618;7.024;2023-08-06T10:25:34;18.80;99.90
27164;DHT22;14685;50.618;7.024;2023-08-06T10:28:09;18.80;99.90
27164;DHT22;14685;50.618;7.024;2023-08-06T10:30:47;18.80;99.90
27164;DHT22;14685;50.618;7.024;2023-08-06T10:33:14;18.70;99.90
27164;DHT22;14685;50.618;7.024;2023-08-06T10:35:47;18.70;99.90
27164;DHT22;14685;50.618;7.024;2023-08-06T10:38:20;18.70;99.90
27164;DHT22;14685;50.618;7.024;2023-08-06T10:43:33;18.50;99.90
27164;DHT22;14685;50.618;7.024;2023-08-06T10:46:09;18.50;99.90
27164;DHT22;14685;50.618;7.024;2023-08-06T10:48:38;18.50;99.90
27164;DHT22;14685;50.618;7.024;2023-08-06T10:51:13;18.60;99.90
27164;DHT22;14685;50.618;7.024;2023-08-06T10:53:48;18.60;99.90
27164;DHT22;14685;50.618;7.024;2023-08-06T10:56:19;18.60;99.90
27164;DHT22;14685;50.618;7.024;2023-08-06T10:58:47;18.60;99.90
27164;DHT22;14685;50.618;7.024;2023-08-06T11:01:16;18.60;99.90
27164;DHT22;14685;50.618;7.024;2023-08-06T11:03:46;18.60;99.90
27164;DHT22;14685;50.618;7.024;2023-08-06T11:06:18;18.60;99.90
27164;DHT22;14685;50.618;7.024;2023-08-06T11:08:53;18.60;99.90
27164;DHT22;14685;50.618;7.024;2023-08-06T11:11:23;18.60;99.90
27164;DHT22;14685;50.618;7.024;2023-08-06T11:13:51;18.60;99.90
27164;DHT22;14685;50.618;7.024;2023-08-06T11:16:20;18.60;99.90
27164;DHT22;14685;50.618;7.024;2023-08-06T11:18:52;18.70;99.90
27164;DHT22;14685;50.618;7.024;2023-08-06T11:21:21;18.60;99.90
27164;DHT22;14685;50.618;7.024;2023-08-06T11:23:49;18.60;99.90
27164;DHT22;14685;50.618;7.024;2023-08-06T11:26:21;18.60;99.90
27164;DHT22;14685;50.618;7.024;2023-08-06T11:28:48;18.60;99.90
27164;DHT22;14685;50.618;7.024;2023-08-06T11:31:22;18.60;99.90
27164;DHT22;14685;50.618;7.024;2023-08-06T11:33:54;18.60;99.90
27164;DHT22;14685;50.618;7.024;2023-08-06T11:36:33;18.50;99.90
27164;DHT22;14685;50.618;7.024;2023-08-06T11:39:03;18.50;99.90
27164;DHT22;14685;50.618;7.024;2023-08-06T11:41:32;18.50;99.90
27164;DHT22;14685;50.618;7.024;2023-08-06T11:44:00;18.50;99.90
27164;DHT22;14685;50.618;7.024;2023-08-06T11:46:27;18.50;99.90
27164;DHT22;14685;50.618;7.024;2023-08-06T11:48:58;18.40;99.90
27164;DHT22;14685;50.618;7.024;2023-08-06T11:51:26;18.40;99.90
27164;DHT22;14685;50.618;7.024;2023-08-06T11:53:57;18.40;99.90
27164;DHT22;14685;50.618;7.024;2023-08-06T11:56:28;18.40;99.90
27164;DHT22;14685;50.618;7.024;2023-08-06T11:58:55;18.40;99.90
27164;DHT22;14685;50.618;7.024;2023-08-06T12:01:25;18.40;99.90
27164;DHT22;14685;50.618;7.024;2023-08-06T12:03:58;18.40;99.90
27164;DHT22;14685;50.618;7.024;2023-08-06T12:06:29;18.40;99.90
27164;DHT22;14685;50.618;7.024;2023-08-06T12:08:56;18.40;99.90
27164;DHT22;14685;50.618;7.024;2023-08-06T12:11:23;18.40;99.90
27164;DHT22;14685;50.618;7.024;2023-08-06T12:13:51;18.40;99.90
27164;DHT22;14685;50.618;7.024;2023-08-06T12:16:18;18.40;99.90
27164;DHT22;14685;50.618;7.024;2023-08-06T12:18:45;18.40;99.90
27164;DHT22;14685;50.618;7.024;2023-08-06T12:21:12;18.30;99.90
27164;DHT22;14685;50.618;7.024;2023-08-06T12:23:39;18.30;99.90
27164;DHT22;14685;50.618;7.024;2023-08-06T12:26:06;18.30;99.90
27164;DHT22;14685;50.618;7.024;2023-08-06T12:28:33;18.30;99.90
27164;DHT22;14685;50.618;7.024;2023-08-06T12:31:00;18.30;99.90
27164;DHT22;14685;50.618;7.024;2023-08-06T12:33:27;18.40;99.90
27164;DHT22;14685;50.618;7.024;2023-08-06T12:35:54;18.30;99.90
27164;DHT22;14685;50.618;7.024;2023-08-06T12:38:22;18.30;99.90
27164;DHT22;14685;50.618;7.024;2023-08-06T12:40:48;18.30;99.90
27164;DHT22;14685;50.618;7.024;2023-08-06T12:43:16;18.30;99.90
27164;DHT22;14685;50.618;7.024;2023-08-06T12:45:43;18.40;99.90
27164;DHT22;14685;50.618;7.024;2023-08-06T12:48:09;18.40;99.90
27164;DHT22;14685;50.618;7.024;2023-08-06T12:50:36;18.40;99.90
27164;DHT22;14685;50.618;7.024;2023-08-06T12:53:03;18.40;99.90
27164;DHT22;14685;50.618;7.024;2023-08-06T12:55:32;18.40;99.90
27164;DHT22;14685;50.618;7.024;2023-08-06T12:57:59;18.40;99.90
27164;DHT22;14685;50.618;7.024;2023-08-06T13:00:26;18.40;99.90
27164;DHT22;14685;50.618;7.024;2023-08-06T13:02:54;18.30;99.90
27164;DHT22;14685;50.618;7.024;2023-08-06T13:05:21;18.40;99.90
27164;DHT22;14685;50.618;7.024;2023-08-06T13:07:50;18.40;99.90
27164;DHT22;14685;50.618;7.024;2023-08-06T13:10:17;18.40;99.90
27164;DHT22;14685;50.618;7.024;2023-08-06T13:12:45;18.40;99.90
27164;DHT22;14685;50.618;7.024;2023-08-06T13:15:14;18.30;99.90
27164;DHT22;14685;50.618;7.024;2023-08-06T13:17:41;18.30;99.90
27164;DHT22;14685;50.618;7.024;2023-08-06T13:20:08;18.30;99.90
27164;DHT22;14685;50.618;7.024;2023-08-06T13:22:35;18.20;99.90
27164;DHT22;14685;50.618;7.024;2023-08-06T13:25:03;18.20;99.90
27164;DHT22;14685;50.618;7.024;2023-08-06T13:27:30;18.20;99.90
27164;DHT22;14685;50.618;7.024;2023-08-06T13:29:59;18.10;99.90
27164;DHT22;14685;50.618;7.024;2023-08-06T13:32:27;18.10;99.90
27164;DHT22;14685;50.618;7.024;2023-08-06T13:34:54;18.20;99.90
27164;DHT22;14685;50.618;7.024;2023-08-06T13:37:21;18.30;99.90
27164;DHT22;14685;50.618;7.024;2023-08-06T13:39:48;18.20;99.90
27164;DHT22;14685;50.618;7.024;2023-08-06T13:42:15;18.20;99.90
27164;DHT22;14685;50.618;7.024;2023-08-06T13:44:42;18.40;99.90
27164;DHT22;14685;50.618;7.024;2023-08-06T13:47:09;18.40;99.90
27164;DHT22;14685;50.618;7.024;2023-08-06T13:49:36;18.20;99.90
27164;DHT22;14685;50.618;7.024;2023-08-06T13:52:04;18.30;99.90
27164;DHT22;14685;50.618;7.024;2023-08-06T13:54:46;18.20;99.90
27164;DHT22;14685;50.618;7.024;2023-08-06T13:57:14;18.20;99.90
27164;DHT22;14685;50.618;7.024;2023-08-06T13:59:41;18.20;99.90
27164;DHT22;14685;50.618;7.024;2023-08-06T14:02:10;18.80;99.90
27164;DHT22;14685;50.618;7.024;2023-08-06T14:04:39;18.20;99.90
27164;DHT22;14685;50.618;7.024;2023-08-06T14:07:07;18.30;99.90
27164;DHT22;14685;50.618;7.024;2023-08-06T14:09:35;18.20;99.90
27164;DHT22;14685;50.618;7.024;2023-08-06T14:12:02;18.20;99.90
27164;DHT22;14685;50.618;7.024;2023-08-06T14:14:30;18.20;99.90
27164;DHT22;14685;50.618;7.024;2023-08-06T14:16:58;18.30;99.90
27164;DHT22;14685;50.618;7.024;2023-08-06T14:19:25;18.20;99.90
27164;DHT22;14685;50.618;7.024;2023-08-06T14:21:52;18.20;99.90
27164;DHT22;14685;50.618;7.024;2023-08-06T14:24:20;18.20;99.90
27164;DHT22;14685;50.618;7.024;2023-08-06T14:26:47;18.50;99.90
27164;DHT22;14685;50.618;7.024;2023-08-06T14:29:14;18.20;99.90
27164;DHT22;14685;50.618;7.024;2023-08-06T14:31:41;18.10;99.90
27164;DHT22;14685;50.618;7.024;2023-08-06T14:34:09;18.20;99.90
27164;DHT22;14685;50.618;7.024;2023-08-06T14:36:38;18.10;99.90
27164;DHT22;14685;50.618;7.024;2023-08-06T14:39:05;18.10;99.90
27164;DHT22;14685;50.618;7.024;2023-08-06T14:41:32;18.20;99.90
27164;DHT22;14685;50.618;7.024;2023-08-06T14:44:00;18.20;99.90
27164;DHT22;14685;50.618;7.024;2023-08-06T14:46:27;18.20;99.90
27164;DHT22;14685;50.618;7.024;2023-08-06T14:48:55;18.20;99.90
27164;DHT22;14685;50.618;7.024;2023-08-06T14:51:22;18.20;99.90
27164;DHT22;14685;50.618;7.024;2023-08-06T14:53:50;18.20;99.90
27164;DHT22;14685;50.618;7.024;2023-08-06T14:56:17;18.20;99.90
27164;DHT22;14685;50.618;7.024;2023-08-06T14:58:45;18.10;99.90
27164;DHT22;14685;50.618;7.024;2023-08-06T15:01:12;18.00;99.90
27164;DHT22;14685;50.618;7.024;2023-08-06T15:03:40;18.20;99.90
27164;DHT22;14685;50.618;7.024;2023-08-06T15:06:08;18.30;99.90
27164;DHT22;14685;50.618;7.024;2023-08-06T15:08:37;18.50;99.90
27164;DHT22;14685;50.618;7.024;2023-08-06T15:11:06;18.20;99.90
27164;DHT22;14685;50.618;7.024;2023-08-06T15:13:33;18.20;99.90
27164;DHT22;14685;50.618;7.024;2023-08-06T15:16:00;18.40;99.90
27164;DHT22;14685;50.618;7.024;2023-08-06T15:18:28;18.40;99.90
27164;DHT22;14685;50.618;7.024;2023-08-06T15:20:55;18.10;99.90
27164;DHT22;14685;50.618;7.024;2023-08-06T15:23:23;18.10;99.90
27164;DHT22;14685;50.618;7.024;2023-08-06T15:25:50;18.00;99.90
27164;DHT22;14685;50.618;7.024;2023-08-06T15:28:17;17.90;99.90
27164;DHT22;14685;50.618;7.024;2023-08-06T15:30:51;17.90;99.90
27164;DHT22;14685;50.618;7.024;2023-08-06T15:33:19;17.90;99.90
27164;DHT22;14685;50.618;7.024;2023-08-06T15:35:46;17.80;99.90
27164;DHT22;14685;50.618;7.024;2023-08-06T15:38:13;17.90;99.90
27164;DHT22;14685;50.618;7.024;2023-08-06T15:40:42;17.80;99.90
27164;DHT22;14685;50.618;7.024;2023-08-06T15:43:12;17.80;99.90